Time;durP1;ratioP1;P1;durP2;ratioP2;P2;SDS_P1;SDS_P2;PMS_P1;PMS_P2;Temp;Humidity;BMP_temperature;BMP_pressure;BME280_temperature;BME280_humidity;BME280_pressure;Samples;Min_cycle;Max_cycle;Signal;HPM_P1;HPM_P2
2021/05/06 00:32:59;;;;;;;2.53;1.70;;;;;;;6.60;73.57;99877.25;5112072;28;20050;-84
2021/05/06 00:35:26;;;;;;;1.85;1.60;;;;;;;6.60;73.91;99869.34;5124074;28;20104;-84
2021/05/06 00:38:01;;;;;;;3.28;2.00;;;;;;;6.60;73.83;99872.00;5117824;28;20077;-84
2021/05/06 00:40:48;;;;;;;2.90;1.75;;;;;;;6.65;74.20;99870.00;5092439;28;20051;-84
2021/05/06 00:59:41;;;;;;;2.65;1.67;;;;;;;6.66;73.51;99870.88;5111754;28;20047;-84
2021/05/06 01:07:28;;;;;;;2.50;1.83;;;;;;;6.53;74.42;99873.13;5113089;28;20040;-84
2021/05/06 01:12:42;;;;;;;3.92;2.30;;;;;;;6.57;74.72;99871.25;5129183;28;20082;-83
2021/05/06 01:15:10;;;;;;;3.88;2.00;;;;;;;6.56;74.44;99866.91;5117644;28;20246;-84
2021/05/06 01:17:37;;;;;;;2.00;1.80;;;;;;;6.58;75.06;99870.34;5122059;27;20077;-84
2021/05/06 01:20:05;;;;;;;3.80;2.40;;;;;;;6.65;74.67;99883.16;5123096;28;20189;-83
2021/05/06 01:22:32;;;;;;;2.33;1.85;;;;;;;6.72;74.22;99880.31;5129962;28;20028;-83
2021/05/06 01:24:59;;;;;;;2.05;1.85;;;;;;;6.76;74.68;99884.53;5129481;28;20054;-83
2021/05/06 01:27:37;;;;;;;3.58;2.10;;;;;;;6.83;74.44;99884.22;5112129;28;20119;-83
2021/05/06 01:35:11;;;;;;;2.80;2.10;;;;;;;6.82;75.89;99864.09;5125691;27;20077;-83
2021/05/06 01:42:48;;;;;;;2.63;2.10;;;;;;;6.79;76.79;99843.16;5123700;27;20121;-83
2021/05/06 01:59:13;;;;;;;4.53;2.08;;;;;;;6.75;76.61;99840.72;5108734;28;20067;-82
2021/05/06 02:01:41;;;;;;;3.03;2.22;;;;;;;6.75;76.17;99840.72;5085430;28;20089;-84
2021/05/06 02:04:07;;;;;;;2.72;2.05;;;;;;;6.69;76.33;99844.44;5115157;27;20051;-84
2021/05/06 02:06:33;;;;;;;3.20;1.88;;;;;;;6.71;76.20;99839.97;5110388;28;20490;-84
2021/05/06 02:09:02;;;;;;;3.03;2.45;;;;;;;6.78;76.40;99851.09;5104230;28;20075;-82
2021/05/06 02:11:29;;;;;;;4.13;2.20;;;;;;;6.74;75.66;99841.66;5108139;28;20741;-83
2021/05/06 02:13:57;;;;;;;2.67;2.35;;;;;;;6.71;75.72;99834.72;5111534;28;20107;-84
2021/05/06 02:16:36;;;;;;;2.25;1.85;;;;;;;6.79;75.22;99848.41;5110411;28;20115;-84
2021/05/06 02:19:04;;;;;;;3.33;1.80;;;;;;;6.81;75.91;99856.25;5107490;28;20048;-84
2021/05/06 02:21:32;;;;;;;2.28;2.00;;;;;;;6.81;75.29;99856.25;5102084;28;20059;-84
2021/05/06 02:23:58;;;;;;;2.42;2.20;;;;;;;6.85;74.78;99842.91;5119808;28;20103;-84
2021/05/06 02:26:24;;;;;;;2.17;1.73;;;;;;;6.91;75.18;99847.94;5119616;27;20060;-84
2021/05/06 02:28:53;;;;;;;4.10;2.20;;;;;;;6.84;75.44;99835.94;5120260;28;20104;-83
2021/05/06 02:31:23;;;;;;;2.70;2.08;;;;;;;6.76;75.89;99826.66;5110793;28;20040;-84
2021/05/06 02:33:49;;;;;;;3.15;2.22;;;;;;;6.75;76.12;99825.78;5123237;28;20120;-83
2021/05/06 02:36:16;;;;;;;3.38;2.10;;;;;;;6.62;75.99;99804.34;5111922;27;20482;-84
2021/05/06 02:38:42;;;;;;;4.60;2.10;;;;;;;6.61;76.19;99815.78;5108221;28;20048;-84
2021/05/06 02:41:08;;;;;;;3.55;2.28;;;;;;;6.50;76.27;99807.47;5105138;28;20064;-84
2021/05/06 02:43:34;;;;;;;3.00;1.88;;;;;;;6.49;77.35;99824.19;5101602;28;20394;-84
2021/05/06 02:46:00;;;;;;;2.92;2.00;;;;;;;6.65;76.21;99825.28;5107947;28;20047;-84
2021/05/06 02:48:27;;;;;;;4.03;2.10;;;;;;;6.66;76.24;99815.63;5090563;28;20563;-81
2021/05/06 02:50:59;;;;;;;5.97;2.08;;;;;;;6.51;76.62;99788.16;5093549;28;20127;-82
2021/05/06 02:53:46;;;;;;;3.45;2.08;;;;;;;6.53;77.26;99809.13;5101863;28;20040;-82
2021/05/06 02:56:19;;;;;;;2.80;2.25;;;;;;;6.48;77.61;99804.06;5107000;27;20052;-82
2021/05/06 03:04:08;;;;;;;3.03;2.00;;;;;;;6.29;77.67;99809.22;5112985;27;20051;-84
2021/05/06 03:06:41;;;;;;;3.00;1.98;;;;;;;6.23;77.99;99798.91;5091751;27;20110;-84
2021/05/06 03:09:31;;;;;;;3.25;2.40;;;;;;;6.20;77.48;99800.78;5121159;27;20107;-84
2021/05/06 03:12:59;;;;;;;2.53;2.10;;;;;;;6.17;77.55;99793.88;5116588;28;20035;-83
2021/05/06 03:22:52;;;;;;;3.20;2.35;;;;;;;6.25;77.69;99789.19;5110981;28;20856;-83
2021/05/06 03:25:21;;;;;;;2.67;2.30;;;;;;;6.32;77.46;99789.78;5115078;28;20135;-83
2021/05/06 03:43:52;;;;;;;5.18;2.28;;;;;;;6.37;75.67;99779.09;5112105;28;20115;-82
2021/05/06 04:27:15;;;;;;;3.70;2.63;;;;;;;6.51;74.78;99800.44;5103683;28;20017;-83
2021/05/06 04:37:51;;;;;;;4.88;2.70;;;;;;;6.64;74.33;99791.16;5121727;28;20079;-81
2021/05/06 04:59:30;;;;;;;7.00;2.80;;;;;;;6.95;72.60;99785.47;5104705;28;20068;-82
2021/05/06 05:04:43;;;;;;;5.75;2.85;;;;;;;6.84;72.04;99772.78;5116910;28;20043;-82
2021/05/06 05:07:20;;;;;;;6.00;2.97;;;;;;;6.76;72.41;99779.28;5113014;28;20123;-82
2021/05/06 05:20:44;;;;;;;3.97;2.70;;;;;;;6.82;72.40;99773.75;5125863;28;20089;-81
2021/05/06 05:23:31;;;;;;;4.75;3.22;;;;;;;6.89;73.05;99781.34;5123613;27;20047;-81
2021/05/06 05:26:07;;;;;;;4.60;3.15;;;;;;;7.02;72.58;99779.06;5116235;28;20047;-81
2021/05/06 05:28:33;;;;;;;6.75;3.17;;;;;;;7.12;71.80;99772.47;5120592;28;20071;-80
2021/05/06 05:31:00;;;;;;;6.35;3.20;;;;;;;7.00;71.65;99773.84;5126281;27;20078;-83
2021/05/06 05:33:33;;;;;;;6.75;3.80;;;;;;;6.86;72.63;99775.34;5128741;27;20039;-83
2021/05/06 05:38:49;;;;;;;5.30;3.40;;;;;;;6.98;72.74;99772.19;5123622;27;20055;-83
2021/05/06 05:41:55;;;;;;;7.45;3.53;;;;;;;7.09;72.23;99771.72;5115026;28;20052;-83
2021/05/06 05:55:05;;;;;;;7.57;3.55;;;;;;;7.41;70.74;99773.81;5131952;28;20051;-82
2021/05/06 05:57:33;;;;;;;5.75;3.28;;;;;;;7.40;70.28;99766.84;5131832;28;20036;-82
2021/05/06 05:59:59;;;;;;;10.07;3.90;;;;;;;7.48;70.71;99775.28;5119574;28;20028;-82
2021/05/06 06:02:25;;;;;;;5.07;3.25;;;;;;;7.49;70.08;99752.44;5130086;28;20060;-82
2021/05/06 06:04:53;;;;;;;7.32;3.55;;;;;;;7.65;69.86;99771.91;5128593;27;20070;-82
2021/05/06 06:07:22;;;;;;;6.13;3.35;;;;;;;7.66;69.67;99774.47;5130642;28;20036;-82
2021/05/06 06:09:49;;;;;;;4.20;3.42;;;;;;;7.76;69.22;99772.25;5122096;28;20039;-82
2021/05/06 06:12:15;;;;;;;7.65;3.58;;;;;;;7.91;71.66;99779.47;5113064;28;20107;-83
2021/05/06 06:17:07;;;;;;;5.63;3.22;;;;;;;8.43;69.68;99779.72;5114648;28;20104;-85
2021/05/06 06:19:40;;;;;;;6.75;3.22;;;;;;;8.56;69.74;99765.00;5114056;27;20043;-82
2021/05/06 06:22:14;;;;;;;6.68;3.25;;;;;;;8.71;66.26;99779.22;5111646;28;20051;-83
2021/05/06 06:24:40;;;;;;;5.25;3.45;;;;;;;8.78;65.34;99767.44;5111705;28;20070;-83
2021/05/06 06:27:08;;;;;;;7.00;3.10;;;;;;;8.67;64.93;99772.38;5113070;27;20039;-83
2021/05/06 06:29:35;;;;;;;11.65;4.22;;;;;;;8.62;65.58;99775.25;5115178;27;20760;-83
2021/05/06 06:32:03;;;;;;;8.13;3.25;;;;;;;8.73;65.68;99791.41;5115589;27;20071;-83
2021/05/06 06:34:31;;;;;;;7.57;3.60;;;;;;;8.75;64.68;99783.44;5119146;27;20071;-84
2021/05/06 06:36:58;;;;;;;7.75;3.10;;;;;;;8.75;64.65;99779.00;5123573;28;20073;-83
2021/05/06 06:39:27;;;;;;;6.50;3.22;;;;;;;8.74;64.63;99782.56;5115959;28;20048;-83
2021/05/06 06:41:54;;;;;;;6.60;3.35;;;;;;;8.70;65.22;99785.44;5113078;28;20048;-85
2021/05/06 06:44:26;;;;;;;6.25;3.17;;;;;;;8.76;64.68;99775.44;5102176;28;20115;-82
2021/05/06 06:47:02;;;;;;;5.95;3.33;;;;;;;8.79;64.98;99774.44;5124708;28;20044;-82
2021/05/06 06:49:40;;;;;;;4.43;3.08;;;;;;;8.85;65.00;99782.03;5126319;28;20047;-83
2021/05/06 06:52:12;;;;;;;5.95;3.53;;;;;;;8.76;64.85;99780.72;5114159;28;20035;-83
2021/05/06 06:54:40;;;;;;;7.53;3.25;;;;;;;8.65;64.39;99780.41;5122172;28;20044;-83
2021/05/06 06:57:08;;;;;;;4.72;3.15;;;;;;;8.49;64.88;99786.50;5111784;28;20024;-81
2021/05/06 06:59:35;;;;;;;5.20;3.35;;;;;;;8.37;65.74;99783.47;5132261;28;20051;-82
2021/05/06 07:02:01;;;;;;;5.53;3.15;;;;;;;8.50;65.95;99770.56;5115089;28;20459;-83
2021/05/06 07:04:31;;;;;;;5.70;2.95;;;;;;;8.60;65.59;99770.97;5109136;28;20063;-83
2021/05/06 07:06:57;;;;;;;7.47;3.45;;;;;;;8.65;64.35;99768.97;5114525;28;20047;-83
2021/05/06 07:09:25;;;;;;;6.70;3.80;;;;;;;8.62;64.84;99766.50;5122771;27;20069;-82
2021/05/06 07:11:51;;;;;;;7.90;3.08;;;;;;;8.65;65.76;99764.56;5129306;28;20061;-82
2021/05/06 07:14:18;;;;;;;7.05;3.08;;;;;;;8.77;65.63;99761.31;5130140;28;20035;-83
2021/05/06 07:16:48;;;;;;;5.30;3.50;;;;;;;8.95;65.58;99753.41;5132156;28;20054;-84
2021/05/06 07:19:16;;;;;;;6.18;2.92;;;;;;;9.14;64.10;99743.59;5127899;28;20048;-84
2021/05/06 07:21:43;;;;;;;10.05;4.95;;;;;;;9.28;63.61;99746.41;5122718;27;20048;-80
2021/05/06 07:24:11;;;;;;;4.57;2.60;;;;;;;9.48;63.66;99754.13;5125678;27;20023;-83
2021/05/06 07:26:42;;;;;;;5.05;2.72;;;;;;;9.69;64.79;99748.63;5124902;27;20109;-83
2021/05/06 07:29:16;;;;;;;4.50;2.90;;;;;;;9.82;63.47;99750.53;5098101;27;20066;-83
2021/05/06 07:31:44;;;;;;;6.65;3.00;;;;;;;9.74;63.47;99736.03;5125375;27;20031;-83
2021/05/06 07:34:16;;;;;;;5.05;2.90;;;;;;;9.78;63.35;99742.84;5120491;27;20051;-82
2021/05/06 07:36:43;;;;;;;5.97;3.30;;;;;;;9.75;62.69;99746.53;5122792;27;20066;-82
2021/05/06 07:39:11;;;;;;;8.27;3.40;;;;;;;9.68;62.82;99744.28;5103007;28;20686;-83
2021/05/06 07:41:39;;;;;;;5.03;2.95;;;;;;;9.58;62.67;99743.06;5139478;27;20150;-83
2021/05/06 07:44:12;;;;;;;4.80;2.90;;;;;;;9.50;63.40;99727.59;5122579;28;20043;-83
2021/05/06 07:46:42;;;;;;;6.00;2.85;;;;;;;9.63;64.17;99735.72;5122431;28;20115;-83
2021/05/06 07:49:14;;;;;;;5.82;3.15;;;;;;;9.82;62.21;99736.44;5130427;27;20051;-82
2021/05/06 07:51:44;;;;;;;4.22;2.85;;;;;;;9.89;62.22;99742.28;5119652;27;20044;-82
2021/05/06 07:54:14;;;;;;;5.70;2.72;;;;;;;9.85;61.78;99737.16;5117239;27;20044;-82
2021/05/06 07:56:46;;;;;;;;;;;;;;;9.81;62.49;99742.69;5135349;27;20044;-82
2021/05/06 07:59:14;;;;;;;6.38;2.78;;;;;;;9.68;63.05;99739.84;5127577;27;19961;-81
2021/05/06 08:01:40;;;;;;;5.88;2.35;;;;;;;9.54;63.80;99734.44;5123806;27;20040;-84
2021/05/06 08:04:08;;;;;;;5.32;2.47;;;;;;;9.55;63.37;99730.00;5120947;27;20040;-82
2021/05/06 08:06:35;;;;;;;5.03;2.70;;;;;;;9.65;63.84;99731.22;5124646;27;20047;-82
2021/05/06 08:09:02;;;;;;;5.82;2.88;;;;;;;9.69;63.48;99740.69;5128829;28;20040;-83
2021/05/06 08:11:29;;;;;;;6.45;2.92;;;;;;;9.58;63.14;99738.63;5121417;28;20871;-82
2021/05/06 08:13:55;;;;;;;4.63;2.72;;;;;;;9.45;64.36;99737.56;5103881;28;20103;-82
2021/05/06 08:16:24;;;;;;;8.73;3.33;;;;;;;9.32;64.14;99733.84;5119111;28;20107;-84
2021/05/06 08:18:50;;;;;;;5.13;2.60;;;;;;;9.25;64.90;99729.84;5116981;28;20056;-84
2021/05/06 08:21:16;;;;;;;7.45;2.60;;;;;;;9.29;64.25;99742.78;5123041;27;20089;-84
2021/05/06 08:23:45;;;;;;;6.30;2.65;;;;;;;9.20;64.90;99737.13;5123226;27;20051;-83
2021/05/06 08:26:12;;;;;;;5.32;2.95;;;;;;;9.23;64.77;99739.63;5123501;27;20127;-83
2021/05/06 08:28:52;;;;;;;5.60;2.72;;;;;;;9.39;64.36;99736.09;5124032;28;20045;-83
2021/05/06 08:31:20;;;;;;;6.80;2.97;;;;;;;9.62;63.48;99741.94;5128082;28;20048;-83
2021/05/06 08:33:46;;;;;;;4.60;3.00;;;;;;;9.78;62.76;99745.47;5128302;28;20473;-83
2021/05/06 08:36:16;;;;;;;4.88;2.80;;;;;;;9.87;62.42;99734.44;5123856;28;20047;-83
2021/05/06 08:38:44;;;;;;;4.22;2.85;;;;;;;9.91;61.39;99735.97;5126199;28;20030;-82
2021/05/06 08:41:13;;;;;;;4.95;3.30;;;;;;;9.93;61.66;99725.28;5124887;28;20056;-82
2021/05/06 08:43:41;;;;;;;4.85;3.00;;;;;;;10.04;61.18;99734.34;5126936;28;20073;-82
2021/05/06 08:46:10;;;;;;;5.55;3.00;;;;;;;10.18;62.00;99731.81;5132110;28;20035;-81
2021/05/06 08:49:04;;;;;;;7.38;3.05;;;;;;;10.42;60.59;99734.88;5117862;28;20068;-83
2021/05/06 08:51:34;;;;;;;4.40;2.80;;;;;;;10.69;60.40;99737.75;5108590;28;20048;-83
2021/05/06 08:54:00;;;;;;;6.68;3.03;;;;;;;10.85;58.20;99738.56;5122487;28;20051;-84
2021/05/06 08:56:27;;;;;;;5.20;2.95;;;;;;;10.79;57.44;99735.41;5120421;28;20055;-83
2021/05/06 08:58:55;;;;;;;5.45;2.83;;;;;;;10.71;57.60;99730.53;5117540;28;20071;-82
2021/05/06 09:01:26;;;;;;;4.57;2.90;;;;;;;10.63;57.31;99734.59;5124665;28;20059;-82
2021/05/06 09:03:54;;;;;;;4.60;2.83;;;;;;;10.59;57.29;99730.41;5124654;28;20040;-82
2021/05/06 09:06:23;;;;;;;4.68;2.53;;;;;;;10.54;57.70;99730.69;5102997;28;20047;-83
2021/05/06 09:08:53;;;;;;;4.30;2.83;;;;;;;10.52;57.13;99722.84;5109333;28;20048;-82
2021/05/06 09:11:39;;;;;;;7.40;3.08;;;;;;;10.42;57.82;99734.88;5129277;28;20065;-82
2021/05/06 09:14:09;;;;;;;4.57;2.90;;;;;;;10.39;58.32;99726.28;5120176;28;20052;-80
2021/05/06 09:16:38;;;;;;;5.28;2.75;;;;;;;10.40;59.00;99731.44;5129417;28;20048;-84
2021/05/06 09:19:08;;;;;;;5.53;3.15;;;;;;;10.42;59.54;99731.38;5120824;28;20093;-84
2021/05/06 09:21:37;;;;;;;6.03;3.33;;;;;;;10.69;58.19;99724.50;5121832;28;20040;-83
2021/05/06 09:24:12;;;;;;;4.25;3.00;;;;;;;10.97;58.21;99714.94;5123299;28;20065;-83
2021/05/06 09:26:40;;;;;;;4.43;3.00;;;;;;;11.31;56.39;99711.13;5132624;28;20111;-83
2021/05/06 09:29:11;;;;;;;6.05;3.40;;;;;;;11.47;57.05;99714.53;5122960;28;20059;-83
2021/05/06 09:31:39;;;;;;;7.32;3.70;;;;;;;11.50;56.49;99711.69;5122192;28;20108;-83
2021/05/06 09:34:13;;;;;;;4.28;3.15;;;;;;;11.37;55.96;99716.03;5114694;28;20070;-83
2021/05/06 09:36:43;;;;;;;3.97;2.67;;;;;;;11.43;56.36;99702.41;5125009;28;20051;-82
2021/05/06 09:39:12;;;;;;;4.32;2.70;;;;;;;11.51;57.46;99714.25;5120741;28;20117;-83
2021/05/06 09:41:39;;;;;;;4.30;2.67;;;;;;;11.57;56.97;99708.56;5115908;28;20123;-83
2021/05/06 09:44:16;;;;;;;3.85;2.95;;;;;;;11.97;55.60;99711.41;5125956;28;20044;-84
2021/05/06 09:46:57;;;;;;;7.55;3.50;;;;;;;12.22;54.41;99706.25;5111390;28;20050;-83
2021/05/06 09:50:01;;;;;;;7.32;3.28;;;;;;;12.29;53.87;99704.88;5123090;28;20052;-84
2021/05/06 09:52:55;;;;;;;5.00;3.05;;;;;;;12.55;53.24;99687.25;5110630;28;20051;-81
2021/05/06 09:55:32;;;;;;;5.03;3.03;;;;;;;12.90;52.72;99684.91;5128208;28;20498;-83
2021/05/06 09:58:32;;;;;;;8.45;3.53;;;;;;;13.14;51.96;99682.34;5120774;27;20070;-85
2021/05/06 10:01:09;;;;;;;8.83;3.40;;;;;;;12.96;51.66;99675.63;5069053;27;20401;-83
2021/05/06 10:03:36;;;;;;;5.70;3.47;;;;;;;12.73;52.31;99679.88;5129144;27;20508;-81
2021/05/06 10:06:13;;;;;;;6.63;3.70;;;;;;;12.60;53.82;99686.94;5123617;27;20044;-82
2021/05/06 10:08:39;;;;;;;6.18;3.40;;;;;;;12.41;54.65;99684.66;5117929;27;20452;-83
2021/05/06 10:11:08;;;;;;;9.88;3.90;;;;;;;12.21;54.10;99678.00;5099129;28;20072;-83
2021/05/06 10:13:36;;;;;;;6.63;3.83;;;;;;;12.24;53.92;99680.44;5118398;27;20047;-81
2021/05/06 10:16:06;;;;;;;5.05;3.55;;;;;;;12.34;54.64;99683.34;5118686;28;20044;-82
2021/05/06 10:18:32;;;;;;;7.30;3.75;;;;;;;12.45;54.24;99669.34;5123543;28;20056;-84
2021/05/06 10:20:59;;;;;;;7.78;3.80;;;;;;;12.27;54.52;99660.81;5115710;28;20037;-82
2021/05/06 10:23:27;;;;;;;7.43;3.83;;;;;;;12.11;54.78;99655.66;5121482;27;20456;-82
2021/05/06 10:25:54;;;;;;;8.02;4.00;;;;;;;11.83;55.43;99661.88;5097611;28;20062;-84
2021/05/06 10:28:23;;;;;;;5.97;4.03;;;;;;;11.55;55.73;99652.13;5111238;27;20104;-82
2021/05/06 10:30:49;;;;;;;5.40;4.30;;;;;;;11.51;56.98;99653.25;5113057;28;20046;-83
2021/05/06 10:33:21;;;;;;;6.35;3.92;;;;;;;11.44;55.85;99646.66;5113275;27;20048;-80
2021/05/06 10:35:48;;;;;;;6.88;3.88;;;;;;;11.44;55.96;99649.31;5111416;27;20115;-82
2021/05/06 10:38:14;;;;;;;7.43;3.92;;;;;;;11.45;54.96;99648.34;5109546;28;20099;-83
2021/05/06 10:40:42;;;;;;;9.43;4.07;;;;;;;11.42;55.38;99645.88;5117104;27;20119;-82
2021/05/06 10:43:24;;;;;;;6.72;3.83;;;;;;;11.72;55.07;99642.25;5124635;27;20067;-82
2021/05/06 10:45:59;;;;;;;4.68;3.70;;;;;;;11.99;54.52;99643.16;5124953;28;20035;-83
2021/05/06 10:48:53;;;;;;;5.60;3.70;;;;;;;12.10;54.59;99623.91;5106511;28;20082;-83
2021/05/06 10:51:42;;;;;;;7.25;3.90;;;;;;;12.22;54.04;99620.44;5116057;28;20067;-83
2021/05/06 10:54:43;;;;;;;5.10;3.58;;;;;;;12.18;53.23;99613.63;5115848;28;20040;-82
2021/05/06 10:57:14;;;;;;;8.52;3.17;;;;;;;12.09;53.18;99606.28;5114387;28;20089;-81
2021/05/06 10:59:43;;;;;;;5.57;3.53;;;;;;;12.07;53.74;99616.16;5108266;28;20052;-82
2021/05/06 11:02:12;;;;;;;7.03;3.40;;;;;;;12.12;53.57;99601.59;5111572;28;20083;-82
2021/05/06 11:04:46;;;;;;;8.52;3.60;;;;;;;12.12;52.96;99600.78;5110264;28;20073;-82
2021/05/06 11:07:15;;;;;;;6.57;3.50;;;;;;;12.19;53.03;99594.94;5110500;28;20729;-81
2021/05/06 11:09:48;;;;;;;5.70;3.17;;;;;;;12.30;53.22;99594.22;5117545;27;20056;-83
2021/05/06 11:12:19;;;;;;;4.82;3.45;;;;;;;12.38;52.19;99591.94;5107732;28;20075;-84
2021/05/06 11:15:04;;;;;;;5.35;3.88;;;;;;;12.36;51.92;99583.22;5108018;27;20047;-82
2021/05/06 11:17:42;;;;;;;5.93;3.60;;;;;;;12.32;52.07;99588.81;5117741;27;20055;-83
2021/05/06 11:20:12;;;;;;;4.47;3.17;;;;;;;12.39;51.33;99580.34;5106119;28;20074;-83
2021/05/06 11:22:41;;;;;;;6.95;3.70;;;;;;;12.37;51.73;99584.91;5114167;27;20051;-82
2021/05/06 11:25:37;;;;;;;9.02;4.90;;;;;;;12.18;52.33;99581.78;5110657;28;20093;-82
2021/05/06 11:28:19;;;;;;;9.00;3.42;;;;;;;12.14;52.64;99569.66;5116970;28;20060;-82
2021/05/06 11:30:59;;;;;;;5.80;3.20;;;;;;;12.01;53.27;99566.97;5117070;28;20577;-82
2021/05/06 11:33:29;;;;;;;4.63;3.67;;;;;;;12.05;53.35;99572.94;5114599;28;20055;-82
2021/05/06 11:36:13;;;;;;;5.57;4.03;;;;;;;12.23;52.85;99559.28;5105638;28;20044;-83
2021/05/06 11:38:54;;;;;;;3.60;2.85;;;;;;;12.41;52.71;99551.91;5115243;28;20048;-84
2021/05/06 11:41:29;;;;;;;4.43;3.08;;;;;;;12.76;50.50;99559.22;5115541;28;20048;-83
2021/05/06 11:44:03;;;;;;;5.80;2.85;;;;;;;12.84;50.11;99544.47;5095291;28;20051;-83
2021/05/06 11:46:39;;;;;;;4.53;3.13;;;;;;;12.77;50.46;99558.28;5111023;28;20046;-83
2021/05/06 11:49:13;;;;;;;5.60;3.45;;;;;;;12.46;50.56;99548.91;5107279;28;20474;-81
2021/05/06 11:51:43;;;;;;;5.70;3.50;;;;;;;12.15;51.65;99542.16;5101426;28;20082;-82
2021/05/06 11:54:13;;;;;;;6.10;3.47;;;;;;;11.97;52.47;99519.50;5109876;28;20151;-83
2021/05/06 11:56:44;;;;;;;6.38;3.55;;;;;;;11.98;52.49;99530.03;5106712;28;20040;-84
2021/05/06 11:59:23;;;;;;;4.20;2.70;;;;;;;12.06;52.25;99511.81;5110242;28;20066;-83
2021/05/06 12:01:53;;;;;;;4.40;3.60;;;;;;;12.32;52.04;99531.25;5117968;27;20054;-82
2021/05/06 12:04:33;;;;;;;3.85;3.40;;;;;;;12.17;52.60;99532.31;5127187;27;20058;-83
2021/05/06 12:07:21;;;;;;;4.47;3.10;;;;;;;11.96;53.02;99526.66;5116714;28;20032;-82
2021/05/06 12:09:50;;;;;;;4.82;3.03;;;;;;;11.70;53.63;99524.81;5130407;28;20047;-81
2021/05/06 12:12:28;;;;;;;6.55;3.05;;;;;;;11.57;55.04;99516.81;5130828;28;20069;-81
2021/05/06 12:14:59;;;;;;;4.55;2.83;;;;;;;11.54;54.55;99512.53;5110335;28;20043;-81
2021/05/06 12:17:28;;;;;;;4.18;2.90;;;;;;;11.41;54.55;99508.13;5116881;28;20104;-82
2021/05/06 12:19:59;;;;;;;5.53;3.55;;;;;;;11.38;54.50;99501.22;5121550;27;20047;-82
2021/05/06 12:22:28;;;;;;;4.90;3.00;;;;;;;11.29;54.54;99501.84;5126905;27;20098;-81
2021/05/06 12:25:03;;;;;;;5.65;3.30;;;;;;;11.23;55.07;99497.75;5116851;28;20057;-82
2021/05/06 12:27:35;;;;;;;5.22;3.95;;;;;;;11.30;54.75;99489.44;5104213;28;20044;-82
2021/05/06 12:30:02;;;;;;;4.30;3.50;;;;;;;11.38;54.75;99484.47;5127057;28;20050;-82
2021/05/06 12:32:33;;;;;;;5.88;3.42;;;;;;;11.38;54.67;99476.53;5114034;28;20036;-82
2021/05/06 12:35:01;;;;;;;4.65;3.10;;;;;;;11.34;55.40;99467.91;5112508;28;20044;-82
2021/05/06 12:37:44;;;;;;;6.78;3.33;;;;;;;11.31;55.13;99465.47;5128183;27;20091;-82
2021/05/06 12:40:14;;;;;;;5.20;3.88;;;;;;;11.31;55.01;99464.63;5128569;27;20063;-82
2021/05/06 12:42:41;;;;;;;5.72;4.20;;;;;;;11.23;55.04;99471.25;5114815;28;20085;-82
2021/05/06 12:45:16;;;;;;;5.53;3.75;;;;;;;11.22;55.14;99468.72;5106376;28;20059;-82
2021/05/06 12:47:45;;;;;;;4.63;3.53;;;;;;;11.22;55.14;99452.81;5113905;28;20051;-82
2021/05/06 12:50:15;;;;;;;6.10;3.63;;;;;;;11.21;54.96;99467.84;5112200;27;20048;-82
2021/05/06 12:52:46;;;;;;;5.25;3.72;;;;;;;11.21;55.32;99470.50;5110895;28;20383;-82
2021/05/06 12:55:26;;;;;;;4.68;3.70;;;;;;;11.25;55.29;99457.91;5109006;28;20074;-81
2021/05/06 12:58:05;;;;;;;4.50;3.97;;;;;;;11.20;55.22;99444.94;5109990;28;20079;-83
2021/05/06 13:00:35;;;;;;;6.43;4.00;;;;;;;11.27;55.52;99442.78;5114622;28;20048;-82
2021/05/06 13:03:10;;;;;;;4.55;4.03;;;;;;;11.33;55.56;99449.47;5104005;28;20081;-83
2021/05/06 13:05:41;;;;;;;6.22;3.85;;;;;;;11.33;55.36;99445.03;5117349;28;20065;-83
2021/05/06 13:08:07;;;;;;;6.70;4.35;;;;;;;11.39;57.56;99433.16;5116945;28;20107;-81
2021/05/06 13:10:42;;;;;;;8.07;4.60;;;;;;;11.48;57.10;99422.81;5113922;28;20059;-81
2021/05/06 13:13:29;;;;;;;6.07;4.20;;;;;;;11.54;56.27;99433.00;5100575;28;21218;-83
2021/05/06 13:15:55;;;;;;;5.50;3.60;;;;;;;11.43;55.57;99424.91;5126821;28;20043;-84
2021/05/06 13:18:22;;;;;;;4.68;3.75;;;;;;;11.48;54.64;99412.22;5119312;28;20056;-82
2021/05/06 13:20:51;;;;;;;7.75;3.88;;;;;;;11.55;54.24;99410.00;5117143;28;20064;-82
2021/05/06 13:23:30;;;;;;;3.97;3.42;;;;;;;11.66;54.05;99410.13;5122610;28;20048;-83
2021/05/06 13:26:04;;;;;;;6.10;3.60;;;;;;;11.76;54.33;99421.00;5125662;28;20052;-82
2021/05/06 13:28:34;;;;;;;4.53;3.58;;;;;;;11.77;54.94;99414.75;5128574;28;20482;-82
2021/05/06 13:31:20;;;;;;;5.70;3.67;;;;;;;11.75;54.90;99406.88;5115862;28;20047;-81
2021/05/06 13:33:49;;;;;;;7.75;3.80;;;;;;;11.80;55.03;99411.91;5114636;28;20493;-81
2021/05/06 13:36:17;;;;;;;6.32;3.90;;;;;;;11.70;56.59;99405.47;5128937;27;20056;-81
2021/05/06 13:39:01;;;;;;;7.68;3.95;;;;;;;11.60;56.83;99416.69;5131441;28;20084;-81
2021/05/06 13:41:43;;;;;;;6.10;4.00;;;;;;;11.49;58.76;99408.59;5100923;28;20065;-84
2021/05/06 13:44:12;;;;;;;7.53;4.22;;;;;;;11.33;59.88;99386.72;5120689;28;20075;-82
2021/05/06 13:47:07;;;;;;;6.47;4.47;;;;;;;11.31;61.42;99391.28;5125728;28;20039;-81
2021/05/06 13:49:33;;;;;;;7.53;4.53;;;;;;;11.34;61.88;99391.03;5130616;27;20090;-81
2021/05/06 13:52:04;;;;;;;5.70;4.30;;;;;;;11.32;62.07;99382.38;5126643;27;20043;-82
2021/05/06 13:54:35;;;;;;;8.35;4.57;;;;;;;11.22;63.03;99378.59;5102037;28;20055;-82
2021/05/06 13:57:03;;;;;;;6.68;4.88;;;;;;;11.20;63.97;99383.16;5114706;28;20056;-82
2021/05/06 13:59:31;;;;;;;9.30;5.18;;;;;;;11.15;64.67;99377.31;5099893;28;20066;-82
2021/05/06 14:01:58;;;;;;;8.77;5.03;;;;;;;11.09;64.37;99369.78;5120026;28;20134;-80
2021/05/06 14:04:25;;;;;;;8.95;4.97;;;;;;;11.03;64.35;99367.50;5116103;28;20483;-81
2021/05/06 14:06:55;;;;;;;6.47;4.40;;;;;;;11.10;64.14;99367.03;5117952;27;20402;-82
2021/05/06 14:09:26;;;;;;;6.60;4.68;;;;;;;11.15;64.63;99367.59;5116945;28;20067;-81
2021/05/06 14:11:55;;;;;;;9.00;4.93;;;;;;;11.17;63.67;99365.69;5121466;28;20044;-82
2021/05/06 14:14:21;;;;;;;6.25;4.65;;;;;;;11.21;64.18;99363.66;5119925;27;20071;-81
2021/05/06 14:16:50;;;;;;;6.93;5.60;;;;;;;11.22;64.76;99365.34;5102742;28;20047;-81
2021/05/06 14:19:19;;;;;;;7.97;4.95;;;;;;;11.16;65.55;99358.69;5110783;28;20052;-82
2021/05/06 14:21:51;;;;;;;9.00;5.43;;;;;;;11.16;66.49;99352.53;5102389;28;20055;-82
2021/05/06 14:24:20;;;;;;;8.57;5.03;;;;;;;11.02;65.97;99353.41;5121590;28;20040;-81
2021/05/06 14:26:50;;;;;;;8.88;5.50;;;;;;;10.91;66.92;99345.31;5120596;28;20112;-81
2021/05/06 14:29:17;;;;;;;7.03;5.00;;;;;;;10.90;66.70;99340.97;5099341;28;20103;-81
2021/05/06 14:31:43;;;;;;;8.82;4.70;;;;;;;11.04;67.43;99342.72;5121863;28;20040;-82
2021/05/06 14:34:10;;;;;;;6.35;5.05;;;;;;;11.13;67.42;99342.97;5126017;28;20161;-82
2021/05/06 14:36:45;;;;;;;8.05;5.18;;;;;;;11.25;67.51;99328.91;5120928;28;20073;-81
2021/05/06 14:39:14;;;;;;;4.60;4.10;;;;;;;11.24;66.11;99319.25;5124705;28;20031;-82
2021/05/06 14:41:43;;;;;;;6.80;4.88;;;;;;;11.35;65.94;99310.59;5130502;28;20085;-82
2021/05/06 14:44:10;;;;;;;7.60;4.90;;;;;;;11.48;66.76;99323.88;5129069;27;20044;-82
2021/05/06 14:46:36;;;;;;;7.30;5.47;;;;;;;11.39;66.31;99312.09;5103029;28;20044;-80
2021/05/06 14:49:05;;;;;;;7.40;4.55;;;;;;;11.41;66.02;99315.47;5128131;28;20028;-83
2021/05/06 14:51:31;;;;;;;5.18;4.43;;;;;;;11.44;66.58;99309.97;5127447;27;20048;-82
2021/05/06 14:54:05;;;;;;;8.48;4.50;;;;;;;11.40;64.35;99303.19;5125035;28;20040;-82
2021/05/06 14:56:31;;;;;;;5.85;4.05;;;;;;;11.23;63.62;99303.47;5130538;28;20061;-82
2021/05/06 14:58:57;;;;;;;7.15;3.90;;;;;;;11.16;65.40;99307.50;5129058;28;20024;-83
2021/05/06 15:01:25;;;;;;;7.70;4.07;;;;;;;10.94;65.92;99302.75;5125619;27;20032;-83
2021/05/06 15:03:53;;;;;;;6.82;4.18;;;;;;;10.69;66.05;99303.50;5128438;28;20039;-82
2021/05/06 15:06:19;;;;;;;9.18;5.35;;;;;;;10.49;68.04;99307.44;5134312;28;20118;-83
2021/05/06 15:08:47;;;;;;;7.25;4.82;;;;;;;10.33;67.53;99298.75;5128117;28;20054;-83
2021/05/06 15:11:15;;;;;;;7.38;4.57;;;;;;;10.14;68.81;99299.03;5129112;28;20441;-83
2021/05/06 15:13:45;;;;;;;6.38;4.20;;;;;;;10.06;69.78;99300.47;5124038;28;20108;-83
2021/05/06 15:16:11;;;;;;;7.10;4.63;;;;;;;9.94;69.91;99283.53;5115276;28;20405;-83
2021/05/06 15:18:37;;;;;;;5.78;4.00;;;;;;;9.88;69.46;99275.16;5122858;28;20044;-83
2021/05/06 15:21:05;;;;;;;6.45;4.13;;;;;;;9.76;70.05;99276.75;5130134;28;20107;-81
2021/05/06 15:23:31;;;;;;;6.55;4.60;;;;;;;9.65;71.05;99280.06;5124147;28;20055;-79